createdAt,value
2018-05-08T00:00:09.818Z,1010.14
2018-05-08T00:01:09.815Z,1010.14
2018-05-08T00:02:09.811Z,1010.17
2018-05-08T00:03:09.810Z,1010.05
2018-05-08T00:04:09.820Z,1010.09
2018-05-08T00:05:09.812Z,1010.13
2018-05-08T00:06:09.807Z,1010.08
2018-05-08T00:07:09.806Z,1010.08
2018-05-08T00:08:09.805Z,1010.07
2018-05-08T00:09:09.803Z,1010.07
2018-05-08T00:10:09.806Z,1010.08
2018-05-08T00:11:09.806Z,1010.04
2018-05-08T00:12:09.805Z,1010.01
2018-05-08T00:13:09.803Z,1010.02
2018-05-08T00:14:09.798Z,1010.00
2018-05-08T00:15:09.796Z,1009.98
2018-05-08T00:16:09.796Z,1009.93
2018-05-08T00:17:09.793Z,1009.97
2018-05-08T00:18:09.796Z,1009.92
2018-05-08T00:19:09.795Z,1009.91
2018-05-08T00:20:09.791Z,1009.94
2018-05-08T00:21:09.793Z,1009.87
2018-05-08T00:22:09.791Z,1009.88
2018-05-08T00:23:09.790Z,1009.93
2018-05-08T00:24:09.790Z,1009.93
2018-05-08T00:25:09.788Z,1009.92
2018-05-08T00:26:09.785Z,1009.94
2018-05-08T00:27:09.780Z,1009.93
2018-05-08T00:28:09.779Z,1009.88
2018-05-08T00:29:09.778Z,1009.87
2018-05-08T00:30:09.781Z,1009.87
2018-05-08T00:31:09.779Z,1009.90
2018-05-08T00:32:09.777Z,1009.82
2018-05-08T00:33:09.804Z,1009.83
2018-05-08T00:34:09.769Z,1009.82
2018-05-08T00:35:09.770Z,1009.85
2018-05-08T00:36:09.771Z,1009.83
2018-05-08T00:37:09.769Z,1009.83
2018-05-08T00:38:09.764Z,1009.80
2018-05-08T00:39:09.762Z,1009.75
2018-05-08T00:40:09.762Z,1009.79
2018-05-08T00:41:09.761Z,1009.74
2018-05-08T00:42:09.761Z,1009.82
2018-05-08T00:43:09.761Z,1009.79
2018-05-08T00:44:09.758Z,1009.77
2018-05-08T00:45:09.756Z,1009.81
2018-05-08T00:46:09.751Z,1009.79
2018-05-08T00:47:09.750Z,1009.75
2018-05-08T00:48:09.747Z,1009.78
2018-05-08T00:49:09.745Z,1009.77
2018-05-08T00:50:09.751Z,1009.77
2018-05-08T00:51:09.749Z,1009.79
2018-05-08T00:52:09.744Z,1009.78
2018-05-08T00:53:09.737Z,1009.76
2018-05-08T00:54:09.741Z,1009.70
2018-05-08T00:55:09.745Z,1009.69
2018-05-08T00:56:09.737Z,1009.73
2018-05-08T00:57:09.735Z,1009.67
2018-05-08T00:58:09.729Z,1009.71
2018-05-08T00:59:09.727Z,1009.67
2018-05-08T01:00:09.726Z,1009.64
2018-05-08T01:01:09.723Z,1009.62
2018-05-08T01:02:09.726Z,1009.61
2018-05-08T01:03:09.724Z,1009.58
2018-05-08T01:04:09.724Z,1009.58
2018-05-08T01:05:09.721Z,1009.62
2018-05-08T01:06:09.715Z,1009.55
2018-05-08T01:07:09.714Z,1009.54
2018-05-08T01:08:09.718Z,1009.56
2018-05-08T01:09:09.714Z,1009.54
2018-05-08T01:10:09.708Z,1009.57
2018-05-08T01:11:09.705Z,1009.50
2018-05-08T01:12:09.706Z,1009.50
2018-05-08T01:13:09.700Z,1009.51
2018-05-08T01:14:09.703Z,1009.49
2018-05-08T01:15:09.701Z,1009.51
2018-05-08T01:16:09.702Z,1009.50
2018-05-08T01:17:09.794Z,1009.50
2018-05-08T01:18:09.693Z,1009.48
2018-05-08T01:19:09.691Z,1009.51
2018-05-08T01:20:09.689Z,1009.48
2018-05-08T01:21:09.685Z,1009.49
2018-05-08T01:22:09.689Z,1009.50
2018-05-08T01:23:09.687Z,1009.41
2018-05-08T01:24:09.680Z,1009.49
2018-05-08T01:25:09.677Z,1009.49
2018-05-08T01:26:09.681Z,1009.42
2018-05-08T01:27:09.682Z,1009.44
2018-05-08T01:28:09.676Z,1009.48
2018-05-08T01:29:09.673Z,1009.48
2018-05-08T01:30:09.667Z,1009.47
2018-05-08T01:31:09.666Z,1009.44
2018-05-08T01:32:09.663Z,1009.42
2018-05-08T01:33:09.660Z,1009.47
2018-05-08T01:34:09.663Z,1009.49
2018-05-08T01:35:09.661Z,1009.45
2018-05-08T01:36:09.660Z,1009.43
2018-05-08T01:37:09.656Z,1009.47
2018-05-08T01:38:09.649Z,1009.47
2018-05-08T01:39:09.650Z,1009.49
2018-05-08T01:40:09.658Z,1009.48
2018-05-08T01:41:09.647Z,1009.48
2018-05-08T01:42:09.644Z,1009.48
2018-05-08T01:43:09.653Z,1009.46
2018-05-08T01:44:09.636Z,1009.49
2018-05-08T01:45:09.633Z,1009.46
2018-05-08T01:46:09.636Z,1009.45
2018-05-08T01:47:09.633Z,1009.44
2018-05-08T01:48:09.633Z,1009.48
2018-05-08T01:49:09.632Z,1009.46
2018-05-08T01:50:09.621Z,1009.43
2018-05-08T01:51:09.621Z,1009.42
2018-05-08T01:52:09.618Z,1009.39
2018-05-08T01:53:09.617Z,1009.40
2018-05-08T01:54:09.616Z,1009.36
2018-05-08T01:55:09.614Z,1009.36
2018-05-08T01:56:09.608Z,1009.33
2018-05-08T01:57:09.606Z,1009.34
2018-05-08T01:58:09.607Z,1009.37
2018-05-08T01:59:09.604Z,1009.35
2018-05-08T02:00:09.605Z,1009.31
2018-05-08T02:01:09.601Z,1009.39
2018-05-08T02:02:09.593Z,1009.32
2018-05-08T02:03:09.590Z,1009.30
2018-05-08T02:04:09.589Z,1009.23
2018-05-08T02:05:09.585Z,1009.25
2018-05-08T02:06:09.588Z,1009.25
2018-05-08T02:07:09.585Z,1009.25
2018-05-08T02:08:09.583Z,1009.23
2018-05-08T02:09:09.583Z,1009.23
2018-05-08T02:10:09.573Z,1009.17
2018-05-08T02:11:09.570Z,1009.21
2018-05-08T02:12:09.573Z,1009.19
2018-05-08T02:13:09.568Z,1009.19
2018-05-08T02:14:09.565Z,1009.18
2018-05-08T02:15:09.560Z,1009.16
2018-05-08T02:16:09.558Z,1009.21
2018-05-08T02:17:09.556Z,1009.13
2018-05-08T02:18:09.557Z,1009.13
2018-05-08T02:19:09.555Z,1009.10
2018-05-08T02:20:09.552Z,1009.09
2018-05-08T02:21:09.551Z,1009.09
2018-05-08T02:22:09.540Z,1009.07
2018-05-08T02:23:09.538Z,1009.03
2018-05-08T02:24:09.537Z,1009.08
2018-05-08T02:25:09.532Z,1009.07
2018-05-08T02:26:09.533Z,1009.03
2018-05-08T02:27:09.531Z,1009.04
2018-05-08T02:28:09.524Z,1009.06
2018-05-08T02:29:09.520Z,1009.03
2018-05-08T02:30:09.522Z,1009.04
2018-05-08T02:31:09.519Z,1009.03
2018-05-08T02:32:09.518Z,1009.00
2018-05-08T02:33:09.515Z,1008.99
2018-05-08T02:34:09.507Z,1008.99
2018-05-08T02:35:09.504Z,1009.00
2018-05-08T02:36:09.503Z,1009.03
2018-05-08T02:37:09.500Z,1009.01
2018-05-08T02:38:09.499Z,1008.99
2018-05-08T02:39:09.500Z,1009.01
2018-05-08T02:40:09.493Z,1008.98
2018-05-08T02:41:09.489Z,1008.98
2018-05-08T02:42:09.485Z,1009.00
2018-05-08T02:43:09.480Z,1008.99
2018-05-08T02:44:09.482Z,1009.00
2018-05-08T02:45:09.479Z,1008.98
2018-05-08T02:46:09.471Z,1009.00
2018-05-08T02:47:09.471Z,1009.01
2018-05-08T02:48:09.465Z,1008.99
2018-05-08T02:49:09.463Z,1008.97
2018-05-08T02:50:09.463Z,1008.98
2018-05-08T02:51:09.462Z,1008.98
2018-05-08T02:52:09.454Z,1008.97
2018-05-08T02:53:09.448Z,1008.97
2018-05-08T02:54:09.452Z,1008.98
2018-05-08T02:55:09.449Z,1008.98
2018-05-08T02:56:09.450Z,1009.01
2018-05-08T02:57:09.444Z,1008.98
2018-05-08T02:58:09.436Z,1008.99
2018-05-08T02:59:09.434Z,1008.97
2018-05-08T03:00:09.435Z,1008.98
2018-05-08T03:01:09.437Z,1008.97
2018-05-08T03:02:09.423Z,1008.97
2018-05-08T03:03:09.420Z,1009.00
2018-05-08T03:04:09.417Z,1008.99
2018-05-08T03:05:09.415Z,1008.94
2018-05-08T03:06:09.414Z,1008.99
2018-05-08T03:07:09.412Z,1009.03
2018-05-08T03:08:09.408Z,1009.01
2018-05-08T03:09:09.405Z,1008.98
2018-05-08T03:10:09.398Z,1008.94
2018-05-08T03:11:09.394Z,1008.91
2018-05-08T03:12:09.392Z,1008.91
2018-05-08T03:13:09.392Z,1008.88
2018-05-08T03:14:09.391Z,1008.94
2018-05-08T03:15:09.387Z,1008.93
2018-05-08T03:16:09.378Z,1008.93
2018-05-08T03:17:09.374Z,1008.93
2018-05-08T03:18:09.376Z,1008.89
2018-05-08T03:19:09.374Z,1008.85
2018-05-08T03:20:09.370Z,1008.88
2018-05-08T03:21:09.371Z,1008.85
2018-05-08T03:22:09.363Z,1008.86
2018-05-08T03:23:09.355Z,1008.90
2018-05-08T03:24:09.354Z,1008.88
2018-05-08T03:25:09.348Z,1008.87
2018-05-08T03:26:09.349Z,1008.85
2018-05-08T03:27:09.347Z,1008.86
2018-05-08T03:28:09.345Z,1008.88
2018-05-08T03:29:09.341Z,1008.83
2018-05-08T03:30:09.332Z,1008.83
2018-05-08T03:31:09.329Z,1008.78
2018-05-08T03:32:09.332Z,1008.78
2018-05-08T03:33:09.326Z,1008.81
2018-05-08T03:34:09.320Z,1008.80
2018-05-08T03:35:09.316Z,1008.79
2018-05-08T03:36:09.312Z,1008.80
2018-05-08T03:37:09.325Z,1008.73
2018-05-08T03:38:09.309Z,1008.79
2018-05-08T03:39:09.306Z,1008.76
2018-05-08T03:40:09.304Z,1008.80
2018-05-08T03:41:09.299Z,1008.81
2018-05-08T03:42:09.291Z,1008.79
2018-05-08T03:43:09.288Z,1008.77
2018-05-08T03:44:09.288Z,1008.77
2018-05-08T03:45:09.281Z,1008.78
2018-05-08T03:46:09.282Z,1008.77
2018-05-08T03:47:09.280Z,1008.73
2018-05-08T03:48:09.270Z,1008.74
2018-05-08T03:49:09.268Z,1008.75
2018-05-08T03:50:09.274Z,1008.71
2018-05-08T03:51:09.266Z,1008.70
2018-05-08T03:52:09.260Z,1008.69
2018-05-08T03:53:09.258Z,1008.70
2018-05-08T03:54:09.250Z,1008.71
2018-05-08T03:55:09.244Z,1008.69
2018-05-08T03:56:09.242Z,1008.66
2018-05-08T03:57:09.239Z,1008.65
2018-05-08T03:58:09.240Z,1008.67
2018-05-08T03:59:09.236Z,1008.66
2018-05-08T04:00:09.231Z,1008.59
2018-05-08T04:01:09.228Z,1008.64
2018-05-08T04:02:09.220Z,1008.63
2018-05-08T04:03:09.216Z,1008.66
2018-05-08T04:04:09.218Z,1008.58
2018-05-08T04:05:09.213Z,1008.69
2018-05-08T04:06:09.205Z,1008.61
2018-05-08T04:07:09.202Z,1008.58
2018-05-08T04:08:09.199Z,1008.57
2018-05-08T04:09:09.194Z,1008.59
2018-05-08T04:10:09.275Z,1008.56
2018-05-08T04:11:09.194Z,1008.60
2018-05-08T04:12:09.189Z,1008.51
2018-05-08T04:13:09.185Z,1008.61
2018-05-08T04:14:09.176Z,1008.55
2018-05-08T04:15:09.179Z,1008.57
2018-05-08T04:16:09.169Z,1008.53
2018-05-08T04:17:09.165Z,1008.53
2018-05-08T04:18:09.167Z,1008.46
2018-05-08T04:19:09.162Z,1008.47
2018-05-08T04:20:09.153Z,1008.44
2018-05-08T04:21:09.217Z,1008.49
2018-05-08T04:22:09.150Z,1008.48
2018-05-08T04:23:09.152Z,1008.44
2018-05-08T04:24:09.144Z,1008.45
2018-05-08T04:25:09.139Z,1008.48
2018-05-08T04:26:09.132Z,1008.46
2018-05-08T04:27:09.128Z,1008.45
2018-05-08T04:28:09.129Z,1008.49
2018-05-08T04:29:09.120Z,1008.49
2018-05-08T04:30:09.121Z,1008.51
2018-05-08T04:31:09.118Z,1008.53
2018-05-08T04:32:09.115Z,1008.54
2018-05-08T04:33:09.110Z,1008.56
2018-05-08T04:34:09.108Z,1008.62
2018-05-08T04:35:09.099Z,1008.61
2018-05-08T04:36:09.100Z,1008.59
2018-05-08T04:37:09.096Z,1008.63
2018-05-08T04:38:09.088Z,1008.66
2018-05-08T04:39:09.087Z,1008.70
2018-05-08T04:40:09.082Z,1008.70
2018-05-08T04:41:09.078Z,1008.76
2018-05-08T04:42:09.081Z,1008.86
2018-05-08T04:43:09.078Z,1008.86
2018-05-08T04:44:09.075Z,1008.87
2018-05-08T04:45:09.072Z,1008.98
2018-05-08T04:46:09.065Z,1009.01
2018-05-08T04:47:09.064Z,1009.01
2018-05-08T04:48:09.067Z,1009.04
2018-05-08T04:49:09.059Z,1009.04
2018-05-08T04:50:09.061Z,1009.11
2018-05-08T04:51:09.061Z,1009.15
2018-05-08T04:52:09.056Z,1009.17
2018-05-08T04:53:09.053Z,1009.20
2018-05-08T04:54:09.057Z,1009.21
2018-05-08T04:55:09.056Z,1009.20
2018-05-08T04:56:09.057Z,1009.25
2018-05-08T04:57:09.055Z,1009.26
2018-05-08T04:58:09.050Z,1009.25
2018-05-08T04:59:09.051Z,1009.28
2018-05-08T05:00:09.050Z,1009.34
2018-05-08T05:01:09.049Z,1009.33
2018-05-08T05:02:09.055Z,1009.37
2018-05-08T05:03:09.055Z,1009.40
2018-05-08T05:04:09.058Z,1009.44
2018-05-08T05:05:09.058Z,1009.39
2018-05-08T05:06:09.054Z,1009.43
2018-05-08T05:07:09.055Z,1009.41
2018-05-08T05:08:09.062Z,1009.42
2018-05-08T05:09:09.069Z,1009.46
2018-05-08T05:10:09.059Z,1009.42
2018-05-08T05:11:09.082Z,1009.45
2018-05-08T05:12:09.064Z,1009.43
2018-05-08T05:13:09.065Z,1009.47
2018-05-08T05:14:09.072Z,1009.45
2018-05-08T05:15:09.074Z,1009.47
2018-05-08T05:16:09.077Z,1009.49
2018-05-08T05:17:09.079Z,1009.57
2018-05-08T05:18:09.082Z,1009.58
2018-05-08T05:19:09.081Z,1009.52
2018-05-08T05:20:09.086Z,1009.61
2018-05-08T05:21:09.088Z,1009.61
2018-05-08T05:22:09.096Z,1009.60
2018-05-08T05:23:09.100Z,1009.66
2018-05-08T05:24:09.099Z,1009.63
2018-05-08T05:25:09.103Z,1009.62
2018-05-08T05:26:09.115Z,1009.65
2018-05-08T05:27:09.115Z,1009.64
2018-05-08T05:28:09.119Z,1009.68
2018-05-08T05:29:09.123Z,1009.70
2018-05-08T05:30:09.123Z,1009.71
2018-05-08T05:31:09.128Z,1009.71
2018-05-08T05:32:09.133Z,1009.74
2018-05-08T05:33:09.137Z,1009.80
2018-05-08T05:34:09.147Z,1009.76
2018-05-08T05:35:09.153Z,1009.80
2018-05-08T05:36:09.158Z,1009.84
2018-05-08T05:37:09.163Z,1009.79
2018-05-08T05:38:09.164Z,1009.83
2018-05-08T05:39:09.170Z,1009.87
2018-05-08T05:40:09.180Z,1009.84
2018-05-08T05:41:09.186Z,1009.83
2018-05-08T05:42:09.187Z,1009.83
2018-05-08T05:43:09.198Z,1009.84
2018-05-08T05:44:09.204Z,1009.86
2018-05-08T05:45:09.206Z,1009.83
2018-05-08T05:46:09.217Z,1009.85
2018-05-08T05:47:09.224Z,1009.88
2018-05-08T05:48:09.230Z,1009.89
2018-05-08T05:49:09.239Z,1009.93
2018-05-08T05:50:09.238Z,1009.94
2018-05-08T05:51:09.246Z,1009.89
2018-05-08T05:52:09.253Z,1009.95
2018-05-08T05:53:09.261Z,1009.96
2018-05-08T05:54:09.273Z,1009.99
2018-05-08T05:55:09.280Z,1010.02
2018-05-08T05:56:09.282Z,1010.01
2018-05-08T05:57:09.293Z,1009.99
2018-05-08T05:58:09.305Z,1009.99
2018-05-08T05:59:09.311Z,1010.01
2018-05-08T06:00:09.405Z,1010.05
2018-05-08T06:01:09.325Z,1010.02
2018-05-08T06:02:09.329Z,1010.03
2018-05-08T06:03:09.339Z,1010.08
2018-05-08T06:04:09.346Z,1010.09
2018-05-08T06:05:09.354Z,1010.09
2018-05-08T06:06:09.368Z,1010.09
2018-05-08T06:07:09.378Z,1010.12
2018-05-08T06:08:09.384Z,1010.10
2018-05-08T06:09:09.398Z,1010.10
2018-05-08T06:10:09.397Z,1010.19
2018-05-08T06:11:09.406Z,1010.15
2018-05-08T06:12:09.420Z,1010.12
2018-05-08T06:13:09.429Z,1010.17
2018-05-08T06:14:09.434Z,1010.15
2018-05-08T06:15:09.443Z,1010.16
2018-05-08T06:16:09.453Z,1010.20
2018-05-08T06:17:09.462Z,1010.19
2018-05-08T06:18:09.476Z,1010.21
2018-05-08T06:19:09.488Z,1010.23
2018-05-08T06:20:09.497Z,1010.23
2018-05-08T06:21:09.506Z,1010.22
2018-05-08T06:22:09.512Z,1010.22
2018-05-08T06:23:09.523Z,1010.22
2018-05-08T06:24:09.533Z,1009.26
2018-05-08T06:25:09.543Z,1009.20
2018-05-08T06:26:09.558Z,1009.21
2018-05-08T06:27:09.569Z,1009.22
2018-05-08T06:28:09.576Z,1009.18
2018-05-08T06:29:09.586Z,1009.18
2018-05-08T06:30:09.605Z,1009.12
2018-05-08T06:31:09.630Z,1009.17
2018-05-08T06:32:09.627Z,1009.20
2018-05-08T06:33:09.635Z,1009.18
2018-05-08T06:34:09.643Z,1009.18
2018-05-08T06:35:09.653Z,1009.18
2018-05-08T06:36:09.666Z,1009.17
2018-05-08T06:37:09.677Z,1009.17
2018-05-08T06:38:09.692Z,1009.15
2018-05-08T06:39:09.704Z,1009.15
2018-05-08T06:40:09.783Z,1009.17
2018-05-08T06:41:09.728Z,1009.18
2018-05-08T06:42:09.736Z,1009.20
2018-05-08T06:43:09.748Z,1009.16
2018-05-08T06:44:09.771Z,1009.22
2018-05-08T06:45:09.777Z,1009.21
2018-05-08T06:46:09.785Z,1009.24
2018-05-08T06:47:09.799Z,1009.20
2018-05-08T06:48:09.812Z,1009.22
2018-05-08T06:49:09.825Z,1009.19
2018-05-08T06:50:09.843Z,1009.21
2018-05-08T06:51:09.855Z,1009.17
2018-05-08T06:52:09.870Z,1009.24
2018-05-08T06:53:09.883Z,1009.24
2018-05-08T06:54:09.891Z,1009.27
2018-05-08T06:55:09.904Z,1009.28
2018-05-08T06:56:09.919Z,1009.24
2018-05-08T06:57:09.932Z,1009.27
2018-05-08T06:58:09.950Z,1009.31
2018-05-08T06:59:09.966Z,1009.30
2018-05-08T07:00:09.975Z,1009.29
2018-05-08T07:01:09.992Z,1009.23
2018-05-08T07:02:10.009Z,1009.23
2018-05-08T07:03:10.023Z,1009.23
2018-05-08T07:04:10.039Z,1009.26
2018-05-08T07:05:10.051Z,1009.24
2018-05-08T07:06:10.063Z,1009.28
2018-05-08T07:07:10.077Z,1009.28
2018-05-08T07:08:10.093Z,1009.27
2018-05-08T07:09:10.111Z,1009.27
2018-05-08T07:10:10.132Z,1009.28
2018-05-08T07:11:10.147Z,1009.23
2018-05-08T07:12:10.158Z,1009.23
2018-05-08T07:13:10.173Z,1009.22
2018-05-08T07:14:10.185Z,1009.23
2018-05-08T07:15:10.202Z,1009.24
2018-05-08T07:16:10.421Z,1009.20
2018-05-08T07:17:10.237Z,1009.24
2018-05-08T07:18:10.247Z,1009.24
2018-05-08T07:19:10.264Z,1009.24
2018-05-08T07:20:10.279Z,1009.23
2018-05-08T07:21:10.296Z,1009.30
2018-05-08T07:22:10.317Z,1009.31
2018-05-08T07:23:10.336Z,1009.34
2018-05-08T07:24:10.351Z,1009.32
2018-05-08T07:25:10.365Z,1009.37
2018-05-08T07:26:10.376Z,1009.49
2018-05-08T07:27:10.394Z,1009.52
2018-05-08T07:28:10.410Z,1009.45
2018-05-08T07:29:10.429Z,1009.49
2018-05-08T07:30:10.446Z,1009.48
2018-05-08T07:31:10.465Z,1009.54
2018-05-08T07:32:10.476Z,1009.46
2018-05-08T07:33:10.492Z,1009.40
2018-05-08T07:34:10.513Z,1009.34
2018-05-08T07:35:10.571Z,1009.30
2018-05-08T07:36:10.553Z,1009.24
2018-05-08T07:37:10.563Z,1009.17
2018-05-08T07:38:10.583Z,1009.15
2018-05-08T07:39:10.593Z,1009.13
2018-05-08T07:40:10.610Z,1009.10
2018-05-08T07:41:10.626Z,1009.10
2018-05-08T07:42:10.646Z,1009.08
2018-05-08T07:43:10.673Z,1009.12
2018-05-08T07:44:10.680Z,1009.14
2018-05-08T07:45:10.694Z,1009.14
2018-05-08T07:46:10.707Z,1009.17
2018-05-08T07:47:10.723Z,1009.20
2018-05-08T07:48:10.744Z,1009.18
2018-05-08T07:49:10.760Z,1009.24
2018-05-08T07:50:10.775Z,1009.23
2018-05-08T07:51:10.788Z,1009.20
2018-05-08T07:52:10.806Z,1009.24
2018-05-08T07:53:10.821Z,1009.21
2018-05-08T07:54:10.842Z,1009.18
2018-05-08T07:55:10.858Z,1009.20
2018-05-08T07:56:10.876Z,1009.16
2018-05-08T07:57:10.897Z,1009.22
2018-05-08T07:58:10.904Z,1009.22
2018-05-08T07:59:10.923Z,1009.18
2018-05-08T08:00:10.938Z,1009.18
2018-05-08T08:01:10.955Z,1009.17
2018-05-08T08:02:10.976Z,1009.18
2018-05-08T08:03:10.993Z,1009.13
2018-05-08T08:04:11.006Z,1009.18
2018-05-08T08:05:11.024Z,1009.19
2018-05-08T08:06:11.045Z,1009.19
2018-05-08T08:07:11.063Z,1009.20
2018-05-08T08:08:11.082Z,1009.24
2018-05-08T08:09:11.102Z,1009.27
2018-05-08T08:10:11.111Z,1009.26
2018-05-08T08:11:11.136Z,1009.23
2018-05-08T08:12:11.148Z,1009.22
2018-05-08T08:13:11.165Z,1009.25
2018-05-08T08:14:11.188Z,1009.24
2018-05-08T08:15:11.214Z,1009.26
2018-05-08T08:16:11.226Z,1009.23
2018-05-08T08:17:11.244Z,1009.19
2018-05-08T08:18:11.265Z,1009.24
2018-05-08T08:19:11.277Z,1009.22
2018-05-08T08:20:11.301Z,1009.24
2018-05-08T08:21:11.320Z,1009.23
2018-05-08T08:22:11.332Z,1009.21
2018-05-08T08:23:11.353Z,1009.21
2018-05-08T08:24:11.371Z,1009.26
2018-05-08T08:25:11.389Z,1009.27
2018-05-08T08:26:11.412Z,1009.22
2018-05-08T08:27:11.433Z,1009.28
2018-05-08T08:28:11.450Z,1009.39
2018-05-08T08:29:11.467Z,1009.52
2018-05-08T08:30:11.488Z,1009.48
2018-05-08T08:31:11.499Z,1009.50
2018-05-08T08:32:11.518Z,1009.57
2018-05-08T08:33:11.536Z,1009.67
2018-05-08T08:34:11.561Z,1009.84
2018-05-08T08:35:11.577Z,1009.81
2018-05-08T08:36:11.592Z,1009.80
2018-05-08T08:37:11.611Z,1009.88
2018-05-08T08:38:11.634Z,1009.95
2018-05-08T08:39:11.653Z,1009.90
2018-05-08T08:40:11.673Z,1010.08
2018-05-08T08:41:11.690Z,1010.11
2018-05-08T08:42:11.705Z,1009.91
2018-05-08T08:43:11.725Z,1009.79
2018-05-08T08:44:11.745Z,1009.76
2018-05-08T08:45:11.764Z,1009.75
2018-05-08T08:46:11.788Z,1009.76
2018-05-08T08:47:11.808Z,1009.74
2018-05-08T08:48:11.831Z,1009.69
2018-05-08T08:49:11.849Z,1009.67
2018-05-08T08:50:11.866Z,1009.63
2018-05-08T08:51:11.892Z,1009.59
2018-05-08T08:52:11.911Z,1009.63
2018-05-08T08:53:11.936Z,1009.63
2018-05-08T08:54:11.950Z,1009.56
2018-05-08T08:55:11.968Z,1009.51
2018-05-08T08:56:11.989Z,1009.39
2018-05-08T08:57:12.009Z,1009.25
2018-05-08T08:58:12.034Z,1009.12
2018-05-08T08:59:12.054Z,1009.00
2018-05-08T09:00:12.076Z,1008.87
2018-05-08T09:01:12.095Z,1008.80
2018-05-08T09:02:12.112Z,1008.76
2018-05-08T09:03:12.133Z,1008.73
2018-05-08T09:04:12.154Z,1008.69
2018-05-08T09:05:12.174Z,1008.71
2018-05-08T09:06:12.201Z,1008.69
2018-05-08T09:07:12.221Z,1008.63
2018-05-08T09:08:12.243Z,1008.67
2018-05-08T09:09:12.257Z,1008.63
2018-05-08T09:10:12.283Z,1008.62
2018-05-08T09:11:12.351Z,1008.62
2018-05-08T09:12:12.325Z,1008.61
2018-05-08T09:13:12.351Z,1008.58
2018-05-08T09:14:12.364Z,1008.60
2018-05-08T09:15:12.384Z,1008.52
2018-05-08T09:16:12.404Z,1008.55
2018-05-08T09:17:12.425Z,1008.54
2018-05-08T09:18:12.459Z,1008.54
2018-05-08T09:19:12.472Z,1008.54
2018-05-08T09:20:12.493Z,1008.52
2018-05-08T09:21:12.513Z,1008.48
2018-05-08T09:22:12.532Z,1008.43
2018-05-08T09:23:12.552Z,1008.44
2018-05-08T09:24:12.578Z,1008.40
2018-05-08T09:25:12.598Z,1008.35
2018-05-08T09:26:12.615Z,1008.38
2018-05-08T09:27:12.635Z,1008.33
2018-05-08T09:28:12.660Z,1008.38
2018-05-08T09:29:12.683Z,1008.34
2018-05-08T09:30:12.705Z,1008.33
2018-05-08T09:31:12.724Z,1008.34
2018-05-08T09:32:12.744Z,1008.31
2018-05-08T09:33:12.765Z,1008.29
2018-05-08T09:34:12.783Z,1008.24
2018-05-08T09:35:12.801Z,1008.24
2018-05-08T09:36:12.821Z,1008.22
2018-05-08T09:37:12.841Z,1008.20
2018-05-08T09:38:12.866Z,1008.17
2018-05-08T09:39:12.888Z,1008.15
2018-05-08T09:40:12.907Z,1008.13
2018-05-08T09:41:12.924Z,1008.14
2018-05-08T09:42:12.949Z,1008.63
2018-05-08T09:43:12.969Z,1008.58
2018-05-08T09:44:12.991Z,1008.57
2018-05-08T09:45:13.012Z,1008.58
2018-05-08T09:46:13.029Z,1008.59
2018-05-08T09:47:13.049Z,1008.55
2018-05-08T09:48:13.071Z,1008.56
2018-05-08T09:49:13.152Z,1008.53
2018-05-08T09:50:13.125Z,1008.53
2018-05-08T09:51:13.135Z,1008.49
2018-05-08T09:52:13.158Z,1008.41
2018-05-08T09:53:13.175Z,1008.44
2018-05-08T09:54:13.260Z,1008.44
2018-05-08T09:55:13.212Z,1008.45
2018-05-08T09:56:13.238Z,1008.41
2018-05-08T09:57:13.256Z,1008.39
2018-05-08T09:58:13.272Z,1008.32
2018-05-08T09:59:13.300Z,1008.34
2018-05-08T10:00:13.330Z,1008.26
2018-05-08T10:01:13.332Z,1008.27
2018-05-08T10:02:13.361Z,1008.22
2018-05-08T10:03:13.379Z,1008.17
2018-05-08T10:04:13.399Z,1008.23
2018-05-08T10:05:13.420Z,1008.21
2018-05-08T10:06:13.435Z,1008.16
2018-05-08T10:07:13.455Z,1008.11
2018-05-08T10:08:13.474Z,1008.06
2018-05-08T10:09:13.497Z,1008.02
2018-05-08T10:10:13.520Z,1008.00
2018-05-08T10:11:13.538Z,1008.03
2018-05-08T10:12:13.553Z,1008.00
2018-05-08T10:13:13.571Z,1007.91
2018-05-08T10:14:13.595Z,1007.96
2018-05-08T10:15:13.615Z,1007.99
2018-05-08T10:16:13.634Z,1007.96
2018-05-08T10:17:13.650Z,1007.97
2018-05-08T10:18:13.665Z,1007.94
2018-05-08T10:19:13.686Z,1007.94
2018-05-08T10:20:13.700Z,1008.00
2018-05-08T10:21:13.718Z,1007.88
2018-05-08T10:22:13.740Z,1007.90
2018-05-08T10:23:13.759Z,1007.96
2018-05-08T10:24:13.779Z,1007.86
2018-05-08T10:25:13.796Z,1007.85
2018-05-08T10:26:13.809Z,1007.86
2018-05-08T10:27:13.828Z,1007.75
2018-05-08T10:28:13.850Z,1007.80
2018-05-08T10:29:13.868Z,1007.82
2018-05-08T10:30:13.883Z,1007.73
2018-05-08T10:31:13.906Z,1007.64
2018-05-08T10:32:13.919Z,1007.70
2018-05-08T10:33:13.937Z,1007.72
2018-05-08T10:34:13.957Z,1007.62
2018-05-08T10:35:13.975Z,1007.64
2018-05-08T10:36:13.993Z,1007.54
2018-05-08T10:37:14.014Z,1007.54
2018-05-08T10:38:14.025Z,1007.55
2018-05-08T10:39:14.046Z,1007.59
2018-05-08T10:40:14.060Z,1007.55
2018-05-08T10:41:14.077Z,1007.73
2018-05-08T10:42:14.101Z,1007.55
2018-05-08T10:43:14.118Z,1007.67
2018-05-08T10:44:14.130Z,1007.57
2018-05-08T10:45:14.147Z,1007.43
2018-05-08T10:46:14.170Z,1007.39
2018-05-08T10:47:14.187Z,1007.44
2018-05-08T10:48:14.203Z,1007.38
2018-05-08T10:49:14.219Z,1007.35
2018-05-08T10:50:14.233Z,1007.31
2018-05-08T10:51:14.250Z,1007.39
2018-05-08T10:52:14.267Z,1007.31
2018-05-08T10:53:14.283Z,1007.30
2018-05-08T10:54:14.306Z,1007.23
2018-05-08T10:55:14.321Z,1007.27
2018-05-08T10:56:14.344Z,1007.24
2018-05-08T10:57:14.357Z,1007.29
2018-05-08T10:58:14.367Z,1007.34
2018-05-08T10:59:14.387Z,1007.16
2018-05-08T11:00:14.407Z,1007.20
2018-05-08T11:01:14.422Z,1007.19
2018-05-08T11:02:14.433Z,1007.19
2018-05-08T11:03:14.451Z,1007.12
2018-05-08T11:04:14.466Z,1007.09
2018-05-08T11:05:14.482Z,1007.14
2018-05-08T11:06:14.502Z,1007.14
2018-05-08T11:07:14.520Z,1006.97
2018-05-08T11:08:14.536Z,1007.00
2018-05-08T11:09:14.552Z,1007.01
2018-05-08T11:10:14.568Z,1006.95
2018-05-08T11:11:14.581Z,1006.93
2018-05-08T11:12:14.598Z,1006.87
2018-05-08T11:13:14.613Z,1006.86
2018-05-08T11:14:14.635Z,1006.80
2018-05-08T11:15:14.652Z,1006.71
2018-05-08T11:16:14.664Z,1006.63
2018-05-08T11:17:14.678Z,1006.58
2018-05-08T11:18:14.699Z,1006.53
2018-05-08T11:19:14.725Z,1006.51
2018-05-08T11:20:14.729Z,1006.52
2018-05-08T11:21:14.744Z,1006.40
2018-05-08T11:22:14.756Z,1006.47
2018-05-08T11:23:14.774Z,1006.37
2018-05-08T11:24:14.792Z,1006.30
2018-05-08T11:25:14.803Z,1006.24
2018-05-08T11:26:14.813Z,1006.28
2018-05-08T11:27:14.897Z,1006.21
2018-05-08T11:28:14.841Z,1006.22
2018-05-08T11:29:14.853Z,1006.19
2018-05-08T11:30:14.873Z,1006.18
2018-05-08T11:31:14.884Z,1006.19
2018-05-08T11:32:14.895Z,1006.09
2018-05-08T11:33:14.905Z,1006.11
2018-05-08T11:34:14.919Z,1006.04
2018-05-08T11:35:14.933Z,1005.99
2018-05-08T11:36:14.940Z,1006.03
2018-05-08T11:37:14.957Z,1006.04
2018-05-08T11:38:14.956Z,1005.98
2018-05-08T11:39:15.036Z,1005.95
2018-05-08T11:40:14.981Z,1005.99
2018-05-08T11:41:14.985Z,1005.89
2018-05-08T11:42:14.998Z,1005.89
2018-05-08T11:43:15.007Z,1005.90
2018-05-08T11:44:15.021Z,1005.85
2018-05-08T11:45:15.026Z,1005.86
2018-05-08T11:46:15.030Z,1005.78
2018-05-08T11:47:15.037Z,1005.86
2018-05-08T11:48:15.056Z,1005.82
2018-05-08T11:49:15.060Z,1005.78
2018-05-08T11:50:15.061Z,1005.81
2018-05-08T11:51:15.071Z,1005.75
2018-05-08T11:52:15.078Z,1005.76
2018-05-08T11:53:15.085Z,1005.77
2018-05-08T11:54:15.096Z,1005.76
2018-05-08T11:55:15.104Z,1005.70
2018-05-08T11:56:15.112Z,1005.71
2018-05-08T11:57:15.119Z,1005.69
2018-05-08T11:58:15.122Z,1005.68
2018-05-08T11:59:15.129Z,1005.73
2018-05-08T12:00:15.137Z,1005.68
2018-05-08T12:01:15.143Z,1005.68
2018-05-08T12:02:15.156Z,1005.73
2018-05-08T12:03:15.162Z,1005.67
2018-05-08T12:04:15.164Z,1005.64
2018-05-08T12:05:15.172Z,1005.67